< < Back
Terminal Aerodrome Forecast


Current Version              Previous Versions:   1  2  3  4  5  6  7  8  9  

Terminal Aerodrome Forecast

677
FTUS42 KFFC 282342
TAFFTY
TAF
KFTY 282342Z 2900/2924 07006KT P6SM FEW100 SCT200
     FM290600 35002KT P6SM SCT150
     FM291600 32005KT P6SM FEW050 SCT250
     FM292300 27003KT P6SM SCT250=



Latest METAR

878
SAUS70 KWBC 290300 RRG
MTRFTY
METAR KFTY 290253Z 00000KT 10SM CLR 25/19 A3001 RMK AO2 SLP151 T02500194
50012


USA.gov is the U.S. government's official web portal to all federal, state and local government web resources and services.